sensor_id;sensor_type;location;lat;lon;timestamp;P1;durP1;ratioP1;P2;durP2;ratioP2
4186;SDS011;2107;52.306;10.484;2023-02-11T00:01:49;0.50;;;0.50;;
4186;SDS011;2107;52.306;10.484;2023-02-11T00:04:16;0.60;;;0.60;;
4186;SDS011;2107;52.306;10.484;2023-02-11T00:06:43;0.63;;;0.63;;
4186;SDS011;2107;52.306;10.484;2023-02-11T00:09:10;0.60;;;0.60;;
4186;SDS011;2107;52.306;10.484;2023-02-11T00:11:37;0.60;;;0.60;;
4186;SDS011;2107;52.306;10.484;2023-02-11T00:14:05;1.10;;;1.10;;
4186;SDS011;2107;52.306;10.484;2023-02-11T00:16:33;1.00;;;1.00;;
4186;SDS011;2107;52.306;10.484;2023-02-11T00:19:01;1.10;;;1.10;;
4186;SDS011;2107;52.306;10.484;2023-02-11T00:21:29;1.00;;;1.00;;
4186;SDS011;2107;52.306;10.484;2023-02-11T00:23:56;0.40;;;0.40;;
4186;SDS011;2107;52.306;10.484;2023-02-11T00:26:27;0.50;;;0.50;;
4186;SDS011;2107;52.306;10.484;2023-02-11T00:28:56;0.50;;;0.50;;
4186;SDS011;2107;52.306;10.484;2023-02-11T00:31:26;0.40;;;0.40;;
4186;SDS011;2107;52.306;10.484;2023-02-11T00:33:53;0.40;;;0.40;;
4186;SDS011;2107;52.306;10.484;2023-02-11T00:36:21;0.40;;;0.40;;
4186;SDS011;2107;52.306;10.484;2023-02-11T00:38:49;0.50;;;0.50;;
4186;SDS011;2107;52.306;10.484;2023-02-11T00:41:17;0.50;;;0.50;;
4186;SDS011;2107;52.306;10.484;2023-02-11T00:43:44;0.50;;;0.50;;
4186;SDS011;2107;52.306;10.484;2023-02-11T00:46:12;0.40;;;0.40;;
4186;SDS011;2107;52.306;10.484;2023-02-11T00:48:40;0.30;;;0.30;;
4186;SDS011;2107;52.306;10.484;2023-02-11T00:51:07;0.30;;;0.30;;
4186;SDS011;2107;52.306;10.484;2023-02-11T00:53:34;0.40;;;0.40;;
4186;SDS011;2107;52.306;10.484;2023-02-11T00:56:02;0.40;;;0.40;;
4186;SDS011;2107;52.306;10.484;2023-02-11T00:58:29;0.30;;;0.30;;
4186;SDS011;2107;52.306;10.484;2023-02-11T01:00:56;0.30;;;0.30;;
4186;SDS011;2107;52.306;10.484;2023-02-11T01:03:23;0.37;;;0.37;;
4186;SDS011;2107;52.306;10.484;2023-02-11T01:05:52;0.30;;;0.30;;
4186;SDS011;2107;52.306;10.484;2023-02-11T01:08:19;0.40;;;0.40;;
4186;SDS011;2107;52.306;10.484;2023-02-11T01:10:52;0.40;;;0.40;;
4186;SDS011;2107;52.306;10.484;2023-02-11T01:13:19;0.30;;;0.30;;
4186;SDS011;2107;52.306;10.484;2023-02-11T01:15:46;0.50;;;0.50;;
4186;SDS011;2107;52.306;10.484;2023-02-11T01:18:13;0.40;;;0.40;;
4186;SDS011;2107;52.306;10.484;2023-02-11T01:20:40;0.40;;;0.40;;
4186;SDS011;2107;52.306;10.484;2023-02-11T01:23:08;0.40;;;0.40;;
4186;SDS011;2107;52.306;10.484;2023-02-11T01:25:35;0.40;;;0.40;;
4186;SDS011;2107;52.306;10.484;2023-02-11T01:28:02;0.50;;;0.50;;
4186;SDS011;2107;52.306;10.484;2023-02-11T01:30:29;0.40;;;0.40;;
4186;SDS011;2107;52.306;10.484;2023-02-11T01:32:56;0.50;;;0.50;;
4186;SDS011;2107;52.306;10.484;2023-02-11T01:35:23;0.30;;;0.30;;
4186;SDS011;2107;52.306;10.484;2023-02-11T01:37:50;0.40;;;0.40;;
4186;SDS011;2107;52.306;10.484;2023-02-11T01:40:18;0.40;;;0.40;;
4186;SDS011;2107;52.306;10.484;2023-02-11T01:42:45;0.40;;;0.40;;
4186;SDS011;2107;52.306;10.484;2023-02-11T01:48:16;0.70;;;0.70;;
4186;SDS011;2107;52.306;10.484;2023-02-11T01:50:46;0.50;;;0.50;;
4186;SDS011;2107;52.306;10.484;2023-02-11T01:53:16;0.43;;;0.43;;
4186;SDS011;2107;52.306;10.484;2023-02-11T01:56:02;0.60;;;0.60;;
4186;SDS011;2107;52.306;10.484;2023-02-11T01:58:48;0.60;;;0.60;;
4186;SDS011;2107;52.306;10.484;2023-02-11T02:01:17;0.70;;;0.70;;
4186;SDS011;2107;52.306;10.484;2023-02-11T02:03:48;0.60;;;0.60;;
4186;SDS011;2107;52.306;10.484;2023-02-11T02:06:21;0.40;;;0.40;;
4186;SDS011;2107;52.306;10.484;2023-02-11T02:08:53;0.40;;;0.40;;
4186;SDS011;2107;52.306;10.484;2023-02-11T02:11:24;0.30;;;0.30;;
4186;SDS011;2107;52.306;10.484;2023-02-11T02:13:51;0.50;;;0.50;;
4186;SDS011;2107;52.306;10.484;2023-02-11T02:16:18;0.30;;;0.30;;
4186;SDS011;2107;52.306;10.484;2023-02-11T02:18:50;0.40;;;0.40;;
4186;SDS011;2107;52.306;10.484;2023-02-11T02:24:41;0.30;;;0.30;;
4186;SDS011;2107;52.306;10.484;2023-02-11T02:27:42;0.30;;;0.30;;
4186;SDS011;2107;52.306;10.484;2023-02-11T02:33:20;0.30;;;0.30;;
4186;SDS011;2107;52.306;10.484;2023-02-11T02:35:59;0.30;;;0.30;;
4186;SDS011;2107;52.306;10.484;2023-02-11T02:38:33;0.30;;;0.30;;
4186;SDS011;2107;52.306;10.484;2023-02-11T02:41:05;0.30;;;0.30;;
4186;SDS011;2107;52.306;10.484;2023-02-11T02:43:34;0.30;;;0.30;;
4186;SDS011;2107;52.306;10.484;2023-02-11T02:46:10;0.30;;;0.30;;
4186;SDS011;2107;52.306;10.484;2023-02-11T02:48:40;0.30;;;0.30;;
4186;SDS011;2107;52.306;10.484;2023-02-11T02:51:10;0.20;;;0.20;;
4186;SDS011;2107;52.306;10.484;2023-02-11T02:53:52;0.20;;;0.20;;
4186;SDS011;2107;52.306;10.484;2023-02-11T02:56:25;0.20;;;0.20;;
4186;SDS011;2107;52.306;10.484;2023-02-11T02:59:04;0.20;;;0.20;;
4186;SDS011;2107;52.306;10.484;2023-02-11T03:01:46;0.30;;;0.30;;
4186;SDS011;2107;52.306;10.484;2023-02-11T03:04:24;0.30;;;0.30;;
4186;SDS011;2107;52.306;10.484;2023-02-11T03:07:02;0.30;;;0.30;;
4186;SDS011;2107;52.306;10.484;2023-02-11T03:09:35;0.30;;;0.30;;
4186;SDS011;2107;52.306;10.484;2023-02-11T03:12:05;0.30;;;0.30;;
4186;SDS011;2107;52.306;10.484;2023-02-11T03:14:34;0.30;;;0.30;;
4186;SDS011;2107;52.306;10.484;2023-02-11T03:17:03;0.20;;;0.20;;
4186;SDS011;2107;52.306;10.484;2023-02-11T03:19:33;0.30;;;0.30;;
4186;SDS011;2107;52.306;10.484;2023-02-11T03:22:03;0.30;;;0.30;;
4186;SDS011;2107;52.306;10.484;2023-02-11T03:24:33;0.20;;;0.20;;
4186;SDS011;2107;52.306;10.484;2023-02-11T03:27:05;0.30;;;0.30;;
4186;SDS011;2107;52.306;10.484;2023-02-11T03:29:38;0.30;;;0.30;;
4186;SDS011;2107;52.306;10.484;2023-02-11T03:32:11;0.30;;;0.30;;
4186;SDS011;2107;52.306;10.484;2023-02-11T03:34:45;0.23;;;0.23;;
4186;SDS011;2107;52.306;10.484;2023-02-11T03:37:17;0.30;;;0.30;;
4186;SDS011;2107;52.306;10.484;2023-02-11T03:39:50;0.30;;;0.30;;
4186;SDS011;2107;52.306;10.484;2023-02-11T03:42:20;0.30;;;0.30;;
4186;SDS011;2107;52.306;10.484;2023-02-11T03:44:52;0.20;;;0.20;;
4186;SDS011;2107;52.306;10.484;2023-02-11T03:47:24;0.30;;;0.30;;
4186;SDS011;2107;52.306;10.484;2023-02-11T03:49:54;0.30;;;0.30;;
4186;SDS011;2107;52.306;10.484;2023-02-11T03:52:24;0.30;;;0.30;;
4186;SDS011;2107;52.306;10.484;2023-02-11T03:54:53;0.30;;;0.30;;
4186;SDS011;2107;52.306;10.484;2023-02-11T03:57:22;0.30;;;0.30;;
4186;SDS011;2107;52.306;10.484;2023-02-11T03:59:50;0.30;;;0.30;;
4186;SDS011;2107;52.306;10.484;2023-02-11T04:02:18;0.30;;;0.30;;
4186;SDS011;2107;52.306;10.484;2023-02-11T04:04:46;0.20;;;0.20;;
4186;SDS011;2107;52.306;10.484;2023-02-11T04:07:14;0.20;;;0.20;;
4186;SDS011;2107;52.306;10.484;2023-02-11T04:09:41;0.20;;;0.20;;
4186;SDS011;2107;52.306;10.484;2023-02-11T04:12:08;0.20;;;0.20;;
4186;SDS011;2107;52.306;10.484;2023-02-11T04:14:35;0.20;;;0.20;;
4186;SDS011;2107;52.306;10.484;2023-02-11T04:17:02;0.20;;;0.20;;
4186;SDS011;2107;52.306;10.484;2023-02-11T04:19:29;0.20;;;0.20;;
4186;SDS011;2107;52.306;10.484;2023-02-11T04:21:56;0.20;;;0.20;;
4186;SDS011;2107;52.306;10.484;2023-02-11T04:24:24;0.20;;;0.20;;
4186;SDS011;2107;52.306;10.484;2023-02-11T04:26:51;0.20;;;0.20;;
4186;SDS011;2107;52.306;10.484;2023-02-11T04:29:18;0.20;;;0.20;;
4186;SDS011;2107;52.306;10.484;2023-02-11T04:31:45;0.20;;;0.20;;
4186;SDS011;2107;52.306;10.484;2023-02-11T04:34:12;0.20;;;0.20;;
4186;SDS011;2107;52.306;10.484;2023-02-11T04:36:39;0.20;;;0.20;;
4186;SDS011;2107;52.306;10.484;2023-02-11T04:39:06;0.20;;;0.20;;
4186;SDS011;2107;52.306;10.484;2023-02-11T04:41:34;0.20;;;0.20;;
4186;SDS011;2107;52.306;10.484;2023-02-11T04:44:01;0.20;;;0.20;;
4186;SDS011;2107;52.306;10.484;2023-02-11T04:46:28;0.20;;;0.20;;
4186;SDS011;2107;52.306;10.484;2023-02-11T04:48:55;0.20;;;0.20;;
4186;SDS011;2107;52.306;10.484;2023-02-11T04:51:22;0.20;;;0.20;;
4186;SDS011;2107;52.306;10.484;2023-02-11T04:53:49;0.20;;;0.20;;
4186;SDS011;2107;52.306;10.484;2023-02-11T04:56:16;0.20;;;0.20;;
4186;SDS011;2107;52.306;10.484;2023-02-11T04:58:44;0.20;;;0.20;;
4186;SDS011;2107;52.306;10.484;2023-02-11T05:01:11;0.10;;;0.10;;
4186;SDS011;2107;52.306;10.484;2023-02-11T05:03:40;0.10;;;0.10;;
4186;SDS011;2107;52.306;10.484;2023-02-11T05:06:08;0.10;;;0.10;;
4186;SDS011;2107;52.306;10.484;2023-02-11T05:08:35;0.10;;;0.10;;
4186;SDS011;2107;52.306;10.484;2023-02-11T05:11:02;0.10;;;0.10;;
4186;SDS011;2107;52.306;10.484;2023-02-11T05:13:30;0.10;;;0.10;;
4186;SDS011;2107;52.306;10.484;2023-02-11T05:15:58;0.00;;;0.00;;
4186;SDS011;2107;52.306;10.484;2023-02-11T05:18:25;0.10;;;0.10;;
4186;SDS011;2107;52.306;10.484;2023-02-11T05:20:52;0.00;;;0.00;;
4186;SDS011;2107;52.306;10.484;2023-02-11T05:23:19;0.10;;;0.10;;
4186;SDS011;2107;52.306;10.484;2023-02-11T05:25:46;0.00;;;0.00;;
4186;SDS011;2107;52.306;10.484;2023-02-11T05:28:13;0.00;;;0.00;;
4186;SDS011;2107;52.306;10.484;2023-02-11T05:30:40;0.03;;;0.03;;
4186;SDS011;2107;52.306;10.484;2023-02-11T05:33:08;0.00;;;0.00;;
4186;SDS011;2107;52.306;10.484;2023-02-11T05:35:35;0.00;;;0.00;;
4186;SDS011;2107;52.306;10.484;2023-02-11T05:38:01;0.00;;;0.00;;
4186;SDS011;2107;52.306;10.484;2023-02-11T05:40:28;0.00;;;0.00;;
4186;SDS011;2107;52.306;10.484;2023-02-11T05:42:55;0.00;;;0.00;;
4186;SDS011;2107;52.306;10.484;2023-02-11T05:45:22;0.10;;;0.10;;
4186;SDS011;2107;52.306;10.484;2023-02-11T05:47:49;0.00;;;0.00;;
4186;SDS011;2107;52.306;10.484;2023-02-11T05:50:17;0.00;;;0.00;;
4186;SDS011;2107;52.306;10.484;2023-02-11T05:52:44;0.00;;;0.00;;
4186;SDS011;2107;52.306;10.484;2023-02-11T05:55:11;0.00;;;0.00;;
4186;SDS011;2107;52.306;10.484;2023-02-11T05:57:38;0.00;;;0.00;;
4186;SDS011;2107;52.306;10.484;2023-02-11T06:00:05;0.00;;;0.00;;
4186;SDS011;2107;52.306;10.484;2023-02-11T06:02:33;0.00;;;0.00;;
4186;SDS011;2107;52.306;10.484;2023-02-11T06:05:00;0.00;;;0.00;;
4186;SDS011;2107;52.306;10.484;2023-02-11T06:07:28;0.00;;;0.00;;
4186;SDS011;2107;52.306;10.484;2023-02-11T06:09:55;0.00;;;0.00;;
4186;SDS011;2107;52.306;10.484;2023-02-11T06:12:23;0.00;;;0.00;;
4186;SDS011;2107;52.306;10.484;2023-02-11T06:14:51;0.00;;;0.00;;
4186;SDS011;2107;52.306;10.484;2023-02-11T06:17:18;0.00;;;0.00;;
4186;SDS011;2107;52.306;10.484;2023-02-11T06:19:45;0.00;;;0.00;;
4186;SDS011;2107;52.306;10.484;2023-02-11T06:22:11;0.00;;;0.00;;
4186;SDS011;2107;52.306;10.484;2023-02-11T06:24:40;0.00;;;0.00;;
4186;SDS011;2107;52.306;10.484;2023-02-11T06:27:07;0.00;;;0.00;;
4186;SDS011;2107;52.306;10.484;2023-02-11T06:29:34;0.00;;;0.00;;
4186;SDS011;2107;52.306;10.484;2023-02-11T06:32:01;0.00;;;0.00;;
4186;SDS011;2107;52.306;10.484;2023-02-11T06:34:29;0.10;;;0.10;;
4186;SDS011;2107;52.306;10.484;2023-02-11T06:36:56;0.00;;;0.00;;
4186;SDS011;2107;52.306;10.484;2023-02-11T06:39:24;0.10;;;0.10;;
4186;SDS011;2107;52.306;10.484;2023-02-11T06:41:53;0.00;;;0.00;;
4186;SDS011;2107;52.306;10.484;2023-02-11T06:44:20;0.10;;;0.10;;
4186;SDS011;2107;52.306;10.484;2023-02-11T06:46:47;0.10;;;0.10;;
4186;SDS011;2107;52.306;10.484;2023-02-11T06:49:14;0.10;;;0.10;;
4186;SDS011;2107;52.306;10.484;2023-02-11T06:51:41;0.10;;;0.10;;
4186;SDS011;2107;52.306;10.484;2023-02-11T06:54:07;0.10;;;0.10;;
4186;SDS011;2107;52.306;10.484;2023-02-11T06:56:37;0.10;;;0.10;;
4186;SDS011;2107;52.306;10.484;2023-02-11T06:59:06;0.10;;;0.10;;
4186;SDS011;2107;52.306;10.484;2023-02-11T07:01:33;0.10;;;0.10;;
4186;SDS011;2107;52.306;10.484;2023-02-11T07:04:00;0.10;;;0.10;;
4186;SDS011;2107;52.306;10.484;2023-02-11T07:06:27;0.10;;;0.10;;
4186;SDS011;2107;52.306;10.484;2023-02-11T07:08:54;0.10;;;0.10;;
4186;SDS011;2107;52.306;10.484;2023-02-11T07:11:22;0.10;;;0.10;;
4186;SDS011;2107;52.306;10.484;2023-02-11T07:13:50;0.10;;;0.10;;
4186;SDS011;2107;52.306;10.484;2023-02-11T07:16:19;0.20;;;0.20;;
4186;SDS011;2107;52.306;10.484;2023-02-11T07:18:47;0.10;;;0.10;;
4186;SDS011;2107;52.306;10.484;2023-02-11T07:21:15;0.10;;;0.10;;
4186;SDS011;2107;52.306;10.484;2023-02-11T07:23:44;0.10;;;0.10;;
4186;SDS011;2107;52.306;10.484;2023-02-11T07:26:13;0.20;;;0.20;;
4186;SDS011;2107;52.306;10.484;2023-02-11T07:28:42;0.10;;;0.10;;
4186;SDS011;2107;52.306;10.484;2023-02-11T07:31:11;0.10;;;0.10;;
4186;SDS011;2107;52.306;10.484;2023-02-11T07:33:41;0.10;;;0.10;;
4186;SDS011;2107;52.306;10.484;2023-02-11T07:36:10;0.10;;;0.10;;
4186;SDS011;2107;52.306;10.484;2023-02-11T07:38:38;0.10;;;0.10;;
4186;SDS011;2107;52.306;10.484;2023-02-11T07:41:06;0.20;;;0.20;;
4186;SDS011;2107;52.306;10.484;2023-02-11T07:43:35;0.20;;;0.20;;
4186;SDS011;2107;52.306;10.484;2023-02-11T07:46:03;0.20;;;0.20;;
4186;SDS011;2107;52.306;10.484;2023-02-11T07:48:30;0.20;;;0.20;;
4186;SDS011;2107;52.306;10.484;2023-02-11T07:51:04;0.20;;;0.20;;
4186;SDS011;2107;52.306;10.484;2023-02-11T07:53:32;0.20;;;0.20;;
4186;SDS011;2107;52.306;10.484;2023-02-11T07:55:59;0.20;;;0.20;;
4186;SDS011;2107;52.306;10.484;2023-02-11T07:58:27;0.20;;;0.20;;
4186;SDS011;2107;52.306;10.484;2023-02-11T08:00:54;0.20;;;0.20;;
4186;SDS011;2107;52.306;10.484;2023-02-11T08:03:20;0.20;;;0.20;;
4186;SDS011;2107;52.306;10.484;2023-02-11T08:05:47;0.20;;;0.20;;
4186;SDS011;2107;52.306;10.484;2023-02-11T08:08:15;0.20;;;0.20;;
4186;SDS011;2107;52.306;10.484;2023-02-11T08:10:42;0.20;;;0.20;;
4186;SDS011;2107;52.306;10.484;2023-02-11T08:13:09;0.20;;;0.20;;
4186;SDS011;2107;52.306;10.484;2023-02-11T08:15:36;0.20;;;0.20;;
4186;SDS011;2107;52.306;10.484;2023-02-11T08:18:03;0.10;;;0.10;;
4186;SDS011;2107;52.306;10.484;2023-02-11T08:20:30;0.20;;;0.20;;
4186;SDS011;2107;52.306;10.484;2023-02-11T08:22:56;0.20;;;0.20;;
4186;SDS011;2107;52.306;10.484;2023-02-11T08:25:25;0.20;;;0.20;;
4186;SDS011;2107;52.306;10.484;2023-02-11T08:27:51;0.20;;;0.20;;
4186;SDS011;2107;52.306;10.484;2023-02-11T08:30:18;0.20;;;0.20;;
4186;SDS011;2107;52.306;10.484;2023-02-11T08:32:45;0.20;;;0.20;;
4186;SDS011;2107;52.306;10.484;2023-02-11T08:35:12;0.20;;;0.20;;
4186;SDS011;2107;52.306;10.484;2023-02-11T08:37:39;0.20;;;0.20;;
4186;SDS011;2107;52.306;10.484;2023-02-11T08:40:06;0.20;;;0.20;;
4186;SDS011;2107;52.306;10.484;2023-02-11T08:42:35;0.20;;;0.20;;
4186;SDS011;2107;52.306;10.484;2023-02-11T08:45:02;0.20;;;0.20;;
4186;SDS011;2107;52.306;10.484;2023-02-11T08:47:30;0.20;;;0.20;;
4186;SDS011;2107;52.306;10.484;2023-02-11T08:49:57;0.20;;;0.20;;
4186;SDS011;2107;52.306;10.484;2023-02-11T08:52:24;0.20;;;0.20;;
4186;SDS011;2107;52.306;10.484;2023-02-11T08:54:51;0.20;;;0.20;;
4186;SDS011;2107;52.306;10.484;2023-02-11T08:57:17;0.20;;;0.20;;
4186;SDS011;2107;52.306;10.484;2023-02-11T08:59:46;0.20;;;0.20;;
4186;SDS011;2107;52.306;10.484;2023-02-11T09:02:13;0.20;;;0.20;;
4186;SDS011;2107;52.306;10.484;2023-02-11T09:04:40;0.20;;;0.20;;
4186;SDS011;2107;52.306;10.484;2023-02-11T09:07:07;0.20;;;0.20;;
4186;SDS011;2107;52.306;10.484;2023-02-11T09:09:33;0.20;;;0.20;;
4186;SDS011;2107;52.306;10.484;2023-02-11T09:12:00;0.20;;;0.20;;
4186;SDS011;2107;52.306;10.484;2023-02-11T09:14:27;0.20;;;0.20;;
4186;SDS011;2107;52.306;10.484;2023-02-11T09:16:55;0.20;;;0.20;;
4186;SDS011;2107;52.306;10.484;2023-02-11T09:19:22;0.23;;;0.23;;
4186;SDS011;2107;52.306;10.484;2023-02-11T09:21:49;0.30;;;0.30;;
4186;SDS011;2107;52.306;10.484;2023-02-11T09:24:16;0.20;;;0.20;;
4186;SDS011;2107;52.306;10.484;2023-02-11T09:26:43;0.23;;;0.23;;
4186;SDS011;2107;52.306;10.484;2023-02-11T09:29:10;0.20;;;0.20;;
4186;SDS011;2107;52.306;10.484;2023-02-11T09:31:37;0.20;;;0.20;;
4186;SDS011;2107;52.306;10.484;2023-02-11T09:34:06;0.20;;;0.20;;
4186;SDS011;2107;52.306;10.484;2023-02-11T09:36:33;0.20;;;0.20;;
4186;SDS011;2107;52.306;10.484;2023-02-11T09:39:02;0.20;;;0.20;;
4186;SDS011;2107;52.306;10.484;2023-02-11T09:44:36;0.20;;;0.20;;
4186;SDS011;2107;52.306;10.484;2023-02-11T09:47:04;0.20;;;0.20;;
4186;SDS011;2107;52.306;10.484;2023-02-11T09:49:43;0.20;;;0.20;;
4186;SDS011;2107;52.306;10.484;2023-02-11T09:52:15;0.20;;;0.20;;
4186;SDS011;2107;52.306;10.484;2023-02-11T09:54:51;0.20;;;0.20;;
4186;SDS011;2107;52.306;10.484;2023-02-11T09:57:20;0.20;;;0.20;;
4186;SDS011;2107;52.306;10.484;2023-02-11T09:59:47;0.20;;;0.20;;
4186;SDS011;2107;52.306;10.484;2023-02-11T10:02:16;0.20;;;0.20;;
4186;SDS011;2107;52.306;10.484;2023-02-11T10:05:01;0.20;;;0.20;;
4186;SDS011;2107;52.306;10.484;2023-02-11T10:07:40;0.20;;;0.20;;
4186;SDS011;2107;52.306;10.484;2023-02-11T10:10:16;0.20;;;0.20;;
4186;SDS011;2107;52.306;10.484;2023-02-11T10:12:57;0.20;;;0.20;;
4186;SDS011;2107;52.306;10.484;2023-02-11T10:15:46;0.20;;;0.20;;
4186;SDS011;2107;52.306;10.484;2023-02-11T10:18:31;0.20;;;0.20;;
4186;SDS011;2107;52.306;10.484;2023-02-11T10:21:16;0.10;;;0.10;;
4186;SDS011;2107;52.306;10.484;2023-02-11T10:23:50;0.10;;;0.10;;
4186;SDS011;2107;52.306;10.484;2023-02-11T10:26:21;0.10;;;0.10;;
4186;SDS011;2107;52.306;10.484;2023-02-11T10:28:49;0.10;;;0.10;;
4186;SDS011;2107;52.306;10.484;2023-02-11T10:31:20;0.10;;;0.10;;
4186;SDS011;2107;52.306;10.484;2023-02-11T10:33:50;0.10;;;0.10;;
4186;SDS011;2107;52.306;10.484;2023-02-11T10:36:24;0.10;;;0.10;;
4186;SDS011;2107;52.306;10.484;2023-02-11T10:38:54;0.10;;;0.10;;
4186;SDS011;2107;52.306;10.484;2023-02-11T10:41:21;0.10;;;0.10;;
4186;SDS011;2107;52.306;10.484;2023-02-11T10:43:53;0.10;;;0.10;;
4186;SDS011;2107;52.306;10.484;2023-02-11T10:46:21;0.10;;;0.10;;
4186;SDS011;2107;52.306;10.484;2023-02-11T10:48:54;0.10;;;0.10;;
4186;SDS011;2107;52.306;10.484;2023-02-11T10:51:23;0.00;;;0.00;;
4186;SDS011;2107;52.306;10.484;2023-02-11T10:54:08;0.10;;;0.10;;
4186;SDS011;2107;52.306;10.484;2023-02-11T10:56:39;0.10;;;0.10;;
4186;SDS011;2107;52.306;10.484;2023-02-11T10:59:13;0.10;;;0.10;;
4186;SDS011;2107;52.306;10.484;2023-02-11T11:01:45;0.10;;;0.10;;
4186;SDS011;2107;52.306;10.484;2023-02-11T11:04:25;0.07;;;0.07;;
4186;SDS011;2107;52.306;10.484;2023-02-11T11:07:11;0.10;;;0.10;;
4186;SDS011;2107;52.306;10.484;2023-02-11T11:09:46;0.10;;;0.10;;
4186;SDS011;2107;52.306;10.484;2023-02-11T11:12:25;0.00;;;0.00;;
4186;SDS011;2107;52.306;10.484;2023-02-11T11:14:58;0.10;;;0.10;;
4186;SDS011;2107;52.306;10.484;2023-02-11T11:17:26;0.10;;;0.10;;
4186;SDS011;2107;52.306;10.484;2023-02-11T11:19:55;0.00;;;0.00;;
4186;SDS011;2107;52.306;10.484;2023-02-11T11:23:09;0.10;;;0.10;;
4186;SDS011;2107;52.306;10.484;2023-02-11T11:25:42;0.10;;;0.10;;
4186;SDS011;2107;52.306;10.484;2023-02-11T11:28:18;0.10;;;0.10;;
4186;SDS011;2107;52.306;10.484;2023-02-11T11:30:47;0.10;;;0.10;;
4186;SDS011;2107;52.306;10.484;2023-02-11T11:33:18;0.10;;;0.10;;
4186;SDS011;2107;52.306;10.484;2023-02-11T11:35:56;0.10;;;0.10;;
4186;SDS011;2107;52.306;10.484;2023-02-11T11:38:36;0.10;;;0.10;;
4186;SDS011;2107;52.306;10.484;2023-02-11T11:41:17;0.00;;;0.00;;
4186;SDS011;2107;52.306;10.484;2023-02-11T11:43:53;0.00;;;0.00;;
4186;SDS011;2107;52.306;10.484;2023-02-11T11:46:22;0.10;;;0.10;;
4186;SDS011;2107;52.306;10.484;2023-02-11T11:48:51;0.00;;;0.00;;
4186;SDS011;2107;52.306;10.484;2023-02-11T11:51:21;0.10;;;0.10;;
4186;SDS011;2107;52.306;10.484;2023-02-11T11:53:52;0.10;;;0.10;;
4186;SDS011;2107;52.306;10.484;2023-02-11T11:56:25;0.10;;;0.10;;
4186;SDS011;2107;52.306;10.484;2023-02-11T11:58:54;0.10;;;0.10;;
4186;SDS011;2107;52.306;10.484;2023-02-11T12:01:25;0.10;;;0.10;;
4186;SDS011;2107;52.306;10.484;2023-02-11T12:04:04;0.10;;;0.10;;
4186;SDS011;2107;52.306;10.484;2023-02-11T12:07:01;0.10;;;0.10;;
4186;SDS011;2107;52.306;10.484;2023-02-11T12:09:47;0.10;;;0.10;;
4186;SDS011;2107;52.306;10.484;2023-02-11T12:12:31;0.10;;;0.10;;
4186;SDS011;2107;52.306;10.484;2023-02-11T12:15:12;0.10;;;0.10;;
4186;SDS011;2107;52.306;10.484;2023-02-11T12:17:59;0.10;;;0.10;;
4186;SDS011;2107;52.306;10.484;2023-02-11T12:20:45;0.10;;;0.10;;
4186;SDS011;2107;52.306;10.484;2023-02-11T12:23:31;0.10;;;0.10;;
4186;SDS011;2107;52.306;10.484;2023-02-11T12:26:10;0.10;;;0.10;;
4186;SDS011;2107;52.306;10.484;2023-02-11T12:28:43;0.10;;;0.10;;
4186;SDS011;2107;52.306;10.484;2023-02-11T12:31:23;0.10;;;0.10;;
4186;SDS011;2107;52.306;10.484;2023-02-11T12:34:05;0.10;;;0.10;;
4186;SDS011;2107;52.306;10.484;2023-02-11T12:36:53;0.10;;;0.10;;
4186;SDS011;2107;52.306;10.484;2023-02-11T12:39:37;0.10;;;0.10;;
4186;SDS011;2107;52.306;10.484;2023-02-11T12:45:29;0.10;;;0.10;;
4186;SDS011;2107;52.306;10.484;2023-02-11T12:48:07;0.10;;;0.10;;
4186;SDS011;2107;52.306;10.484;2023-02-11T12:50:48;0.10;;;0.10;;
4186;SDS011;2107;52.306;10.484;2023-02-11T12:53:27;0.10;;;0.10;;
4186;SDS011;2107;52.306;10.484;2023-02-11T12:56:15;0.10;;;0.10;;
4186;SDS011;2107;52.306;10.484;2023-02-11T12:58:47;0.20;;;0.20;;
4186;SDS011;2107;52.306;10.484;2023-02-11T13:01:18;0.10;;;0.10;;
4186;SDS011;2107;52.306;10.484;2023-02-11T13:03:50;0.20;;;0.20;;
4186;SDS011;2107;52.306;10.484;2023-02-11T13:06:21;0.10;;;0.10;;
4186;SDS011;2107;52.306;10.484;2023-02-11T13:08:54;0.20;;;0.20;;
4186;SDS011;2107;52.306;10.484;2023-02-11T13:11:26;0.20;;;0.20;;
4186;SDS011;2107;52.306;10.484;2023-02-11T13:13:56;0.20;;;0.20;;
4186;SDS011;2107;52.306;10.484;2023-02-11T13:16:29;0.20;;;0.20;;
4186;SDS011;2107;52.306;10.484;2023-02-11T13:19:02;0.20;;;0.20;;
4186;SDS011;2107;52.306;10.484;2023-02-11T13:24:39;0.10;;;0.10;;
4186;SDS011;2107;52.306;10.484;2023-02-11T13:27:10;0.20;;;0.20;;
4186;SDS011;2107;52.306;10.484;2023-02-11T13:30:07;0.20;;;0.20;;
4186;SDS011;2107;52.306;10.484;2023-02-11T13:35:47;0.10;;;0.10;;
4186;SDS011;2107;52.306;10.484;2023-02-11T13:38:35;0.20;;;0.20;;
4186;SDS011;2107;52.306;10.484;2023-02-11T13:41:03;0.20;;;0.20;;
4186;SDS011;2107;52.306;10.484;2023-02-11T13:43:32;0.20;;;0.20;;
4186;SDS011;2107;52.306;10.484;2023-02-11T13:46:03;0.20;;;0.20;;
4186;SDS011;2107;52.306;10.484;2023-02-11T13:48:32;0.20;;;0.20;;
4186;SDS011;2107;52.306;10.484;2023-02-11T13:51:02;0.20;;;0.20;;
4186;SDS011;2107;52.306;10.484;2023-02-11T13:53:41;0.20;;;0.20;;
4186;SDS011;2107;52.306;10.484;2023-02-11T13:56:22;0.20;;;0.20;;
4186;SDS011;2107;52.306;10.484;2023-02-11T13:58:53;0.10;;;0.10;;
4186;SDS011;2107;52.306;10.484;2023-02-11T14:08:06;0.20;;;0.20;;
4186;SDS011;2107;52.306;10.484;2023-02-11T14:14:20;0.20;;;0.20;;
4186;SDS011;2107;52.306;10.484;2023-02-11T14:19:57;0.17;;;0.17;;
4186;SDS011;2107;52.306;10.484;2023-02-11T14:22:26;0.20;;;0.20;;
4186;SDS011;2107;52.306;10.484;2023-02-11T14:24:56;0.20;;;0.20;;
4186;SDS011;2107;52.306;10.484;2023-02-11T14:27:35;0.10;;;0.10;;
4186;SDS011;2107;52.306;10.484;2023-02-11T14:30:18;0.20;;;0.20;;
4186;SDS011;2107;52.306;10.484;2023-02-11T14:33:03;0.17;;;0.17;;
4186;SDS011;2107;52.306;10.484;2023-02-11T14:35:49;0.10;;;0.10;;
4186;SDS011;2107;52.306;10.484;2023-02-11T14:38:25;0.10;;;0.10;;
4186;SDS011;2107;52.306;10.484;2023-02-11T14:41:05;0.10;;;0.10;;
4186;SDS011;2107;52.306;10.484;2023-02-11T14:43:37;0.20;;;0.20;;
4186;SDS011;2107;52.306;10.484;2023-02-11T14:46:06;0.17;;;0.17;;
4186;SDS011;2107;52.306;10.484;2023-02-11T14:48:35;0.10;;;0.10;;
4186;SDS011;2107;52.306;10.484;2023-02-11T14:51:05;0.10;;;0.10;;
4186;SDS011;2107;52.306;10.484;2023-02-11T14:53:34;0.10;;;0.10;;
4186;SDS011;2107;52.306;10.484;2023-02-11T14:56:03;0.10;;;0.10;;
4186;SDS011;2107;52.306;10.484;2023-02-11T14:58:44;0.10;;;0.10;;
4186;SDS011;2107;52.306;10.484;2023-02-11T15:01:23;0.10;;;0.10;;
4186;SDS011;2107;52.306;10.484;2023-02-11T15:03:54;0.10;;;0.10;;
4186;SDS011;2107;52.306;10.484;2023-02-11T15:06:23;0.20;;;0.20;;
4186;SDS011;2107;52.306;10.484;2023-02-11T15:08:53;0.20;;;0.20;;
4186;SDS011;2107;52.306;10.484;2023-02-11T15:11:25;0.10;;;0.10;;
4186;SDS011;2107;52.306;10.484;2023-02-11T15:13:53;0.10;;;0.10;;
4186;SDS011;2107;52.306;10.484;2023-02-11T15:16:23;0.20;;;0.20;;
4186;SDS011;2107;52.306;10.484;2023-02-11T15:18:54;0.20;;;0.20;;
4186;SDS011;2107;52.306;10.484;2023-02-11T15:21:26;0.20;;;0.20;;
4186;SDS011;2107;52.306;10.484;2023-02-11T15:23:57;0.10;;;0.10;;
4186;SDS011;2107;52.306;10.484;2023-02-11T15:26:25;0.10;;;0.10;;
4186;SDS011;2107;52.306;10.484;2023-02-11T15:28:53;0.10;;;0.10;;
4186;SDS011;2107;52.306;10.484;2023-02-11T15:31:21;0.20;;;0.20;;
4186;SDS011;2107;52.306;10.484;2023-02-11T15:33:49;0.20;;;0.20;;
4186;SDS011;2107;52.306;10.484;2023-02-11T15:36:19;0.20;;;0.20;;
4186;SDS011;2107;52.306;10.484;2023-02-11T15:41:54;0.20;;;0.20;;
4186;SDS011;2107;52.306;10.484;2023-02-11T15:44:25;0.10;;;0.10;;
4186;SDS011;2107;52.306;10.484;2023-02-11T15:46:53;0.10;;;0.10;;
4186;SDS011;2107;52.306;10.484;2023-02-11T15:49:20;0.10;;;0.10;;
4186;SDS011;2107;52.306;10.484;2023-02-11T15:51:49;0.20;;;0.20;;
4186;SDS011;2107;52.306;10.484;2023-02-11T15:54:17;0.10;;;0.10;;
4186;SDS011;2107;52.306;10.484;2023-02-11T15:56:46;0.20;;;0.20;;
4186;SDS011;2107;52.306;10.484;2023-02-11T15:59:16;0.10;;;0.10;;
4186;SDS011;2107;52.306;10.484;2023-02-11T16:01:46;0.10;;;0.10;;